sensor_id;sensor_type;location;lat;lon;timestamp;P1;durP1;ratioP1;P2;durP2;ratioP2
21274;SDS011;36472;52.170;20.884;2023-03-04T00:01:44;32.20;;;17.65;;
21274;SDS011;36472;52.170;20.884;2023-03-04T00:04:15;28.15;;;16.35;;
21274;SDS011;36472;52.170;20.884;2023-03-04T00:06:44;27.75;;;16.30;;
21274;SDS011;36472;52.170;20.884;2023-03-04T00:09:14;32.03;;;18.10;;
21274;SDS011;36472;52.170;20.884;2023-03-04T00:11:43;31.10;;;18.08;;
21274;SDS011;36472;52.170;20.884;2023-03-04T00:14:12;34.72;;;18.42;;
21274;SDS011;36472;52.170;20.884;2023-03-04T00:16:41;33.47;;;19.88;;
21274;SDS011;36472;52.170;20.884;2023-03-04T00:19:10;33.92;;;17.88;;
21274;SDS011;36472;52.170;20.884;2023-03-04T00:21:40;30.23;;;18.17;;
21274;SDS011;36472;52.170;20.884;2023-03-04T00:24:09;35.65;;;18.75;;
21274;SDS011;36472;52.170;20.884;2023-03-04T00:26:38;36.13;;;18.08;;
21274;SDS011;36472;52.170;20.884;2023-03-04T00:29:07;36.30;;;19.10;;
21274;SDS011;36472;52.170;20.884;2023-03-04T00:31:36;31.77;;;18.35;;
21274;SDS011;36472;52.170;20.884;2023-03-04T00:34:07;38.95;;;19.58;;
21274;SDS011;36472;52.170;20.884;2023-03-04T00:36:35;33.25;;;18.55;;
21274;SDS011;36472;52.170;20.884;2023-03-04T00:39:06;37.70;;;18.95;;
21274;SDS011;36472;52.170;20.884;2023-03-04T00:41:35;33.72;;;19.13;;
21274;SDS011;36472;52.170;20.884;2023-03-04T00:44:04;38.50;;;19.48;;
21274;SDS011;36472;52.170;20.884;2023-03-04T00:46:33;41.35;;;20.25;;
21274;SDS011;36472;52.170;20.884;2023-03-04T00:49:02;37.38;;;19.33;;
21274;SDS011;36472;52.170;20.884;2023-03-04T00:51:31;39.97;;;20.75;;
21274;SDS011;36472;52.170;20.884;2023-03-04T00:54:01;40.15;;;19.40;;
21274;SDS011;36472;52.170;20.884;2023-03-04T00:56:31;36.88;;;19.48;;
21274;SDS011;36472;52.170;20.884;2023-03-04T00:59:00;41.22;;;20.65;;
21274;SDS011;36472;52.170;20.884;2023-03-04T01:01:31;39.38;;;20.30;;
21274;SDS011;36472;52.170;20.884;2023-03-04T01:04:00;38.38;;;18.38;;
21274;SDS011;36472;52.170;20.884;2023-03-04T01:06:29;34.67;;;17.60;;
21274;SDS011;36472;52.170;20.884;2023-03-04T01:08:58;37.83;;;17.90;;
21274;SDS011;36472;52.170;20.884;2023-03-04T01:11:29;40.47;;;19.23;;
21274;SDS011;36472;52.170;20.884;2023-03-04T01:13:59;39.85;;;19.52;;
21274;SDS011;36472;52.170;20.884;2023-03-04T01:16:28;37.15;;;18.60;;
21274;SDS011;36472;52.170;20.884;2023-03-04T01:18:57;37.85;;;19.27;;
21274;SDS011;36472;52.170;20.884;2023-03-04T01:21:26;39.90;;;20.77;;
21274;SDS011;36472;52.170;20.884;2023-03-04T01:23:55;40.30;;;20.00;;
21274;SDS011;36472;52.170;20.884;2023-03-04T01:26:24;39.40;;;19.80;;
21274;SDS011;36472;52.170;20.884;2023-03-04T01:28:54;38.47;;;19.38;;
21274;SDS011;36472;52.170;20.884;2023-03-04T01:31:24;38.00;;;18.50;;
21274;SDS011;36472;52.170;20.884;2023-03-04T01:33:53;39.97;;;18.95;;
21274;SDS011;36472;52.170;20.884;2023-03-04T01:36:22;39.20;;;18.67;;
21274;SDS011;36472;52.170;20.884;2023-03-04T01:38:52;34.88;;;18.33;;
21274;SDS011;36472;52.170;20.884;2023-03-04T01:41:23;37.58;;;18.10;;
21274;SDS011;36472;52.170;20.884;2023-03-04T01:43:54;40.47;;;18.95;;
21274;SDS011;36472;52.170;20.884;2023-03-04T01:46:28;32.63;;;17.92;;
21274;SDS011;36472;52.170;20.884;2023-03-04T01:48:58;32.22;;;16.35;;
21274;SDS011;36472;52.170;20.884;2023-03-04T01:51:27;32.33;;;16.27;;
21274;SDS011;36472;52.170;20.884;2023-03-04T01:53:56;34.35;;;17.30;;
21274;SDS011;36472;52.170;20.884;2023-03-04T01:56:27;34.28;;;17.33;;
21274;SDS011;36472;52.170;20.884;2023-03-04T02:01:52;31.27;;;16.10;;
21274;SDS011;36472;52.170;20.884;2023-03-04T02:04:24;29.60;;;16.08;;
21274;SDS011;36472;52.170;20.884;2023-03-04T02:06:56;31.60;;;15.93;;
21274;SDS011;36472;52.170;20.884;2023-03-04T02:09:28;28.77;;;15.05;;
21274;SDS011;36472;52.170;20.884;2023-03-04T02:11:59;29.50;;;15.65;;
21274;SDS011;36472;52.170;20.884;2023-03-04T02:14:29;30.40;;;15.82;;
21274;SDS011;36472;52.170;20.884;2023-03-04T02:16:59;29.35;;;15.43;;
21274;SDS011;36472;52.170;20.884;2023-03-04T02:19:32;30.17;;;16.08;;
21274;SDS011;36472;52.170;20.884;2023-03-04T02:22:11;27.75;;;14.90;;
21274;SDS011;36472;52.170;20.884;2023-03-04T02:24:42;31.05;;;15.98;;
21274;SDS011;36472;52.170;20.884;2023-03-04T02:27:19;29.92;;;16.23;;
21274;SDS011;36472;52.170;20.884;2023-03-04T02:29:48;32.78;;;16.42;;
21274;SDS011;36472;52.170;20.884;2023-03-04T02:32:17;31.35;;;15.55;;
21274;SDS011;36472;52.170;20.884;2023-03-04T02:34:47;29.98;;;15.05;;
21274;SDS011;36472;52.170;20.884;2023-03-04T02:37:19;31.50;;;16.52;;
21274;SDS011;36472;52.170;20.884;2023-03-04T02:39:52;30.00;;;16.27;;
21274;SDS011;36472;52.170;20.884;2023-03-04T02:42:23;31.70;;;17.10;;
21274;SDS011;36472;52.170;20.884;2023-03-04T02:44:58;35.38;;;17.10;;
21274;SDS011;36472;52.170;20.884;2023-03-04T02:47:28;29.85;;;16.35;;
21274;SDS011;36472;52.170;20.884;2023-03-04T02:49:57;30.88;;;17.23;;
21274;SDS011;36472;52.170;20.884;2023-03-04T02:52:26;32.95;;;17.15;;
21274;SDS011;36472;52.170;20.884;2023-03-04T02:54:56;34.75;;;18.48;;
21274;SDS011;36472;52.170;20.884;2023-03-04T02:57:27;33.80;;;19.15;;
21274;SDS011;36472;52.170;20.884;2023-03-04T02:59:56;34.38;;;19.45;;
21274;SDS011;36472;52.170;20.884;2023-03-04T03:02:26;36.15;;;19.40;;
21274;SDS011;36472;52.170;20.884;2023-03-04T03:04:56;35.50;;;19.50;;
21274;SDS011;36472;52.170;20.884;2023-03-04T03:07:26;34.00;;;19.33;;
21274;SDS011;36472;52.170;20.884;2023-03-04T03:09:55;33.85;;;19.27;;
21274;SDS011;36472;52.170;20.884;2023-03-04T03:12:24;31.98;;;18.08;;
21274;SDS011;36472;52.170;20.884;2023-03-04T03:14:55;33.88;;;19.90;;
21274;SDS011;36472;52.170;20.884;2023-03-04T03:17:24;33.65;;;19.98;;
21274;SDS011;36472;52.170;20.884;2023-03-04T03:19:53;32.97;;;19.50;;
21274;SDS011;36472;52.170;20.884;2023-03-04T03:22:22;34.00;;;18.75;;
21274;SDS011;36472;52.170;20.884;2023-03-04T03:24:52;34.70;;;19.27;;
21274;SDS011;36472;52.170;20.884;2023-03-04T03:27:21;34.75;;;19.23;;
21274;SDS011;36472;52.170;20.884;2023-03-04T03:29:52;36.30;;;20.30;;
21274;SDS011;36472;52.170;20.884;2023-03-04T03:32:21;33.60;;;18.35;;
21274;SDS011;36472;52.170;20.884;2023-03-04T03:34:50;36.65;;;20.20;;
21274;SDS011;36472;52.170;20.884;2023-03-04T03:37:19;32.45;;;18.92;;
21274;SDS011;36472;52.170;20.884;2023-03-04T03:39:48;34.30;;;19.10;;
21274;SDS011;36472;52.170;20.884;2023-03-04T03:42:17;35.13;;;19.88;;
21274;SDS011;36472;52.170;20.884;2023-03-04T03:44:46;37.22;;;20.42;;
21274;SDS011;36472;52.170;20.884;2023-03-04T03:47:17;32.35;;;18.55;;
21274;SDS011;36472;52.170;20.884;2023-03-04T03:49:46;32.58;;;18.67;;
21274;SDS011;36472;52.170;20.884;2023-03-04T03:52:15;32.25;;;17.95;;
21274;SDS011;36472;52.170;20.884;2023-03-04T03:54:44;33.83;;;18.90;;
21274;SDS011;36472;52.170;20.884;2023-03-04T03:57:13;31.55;;;18.50;;
21274;SDS011;36472;52.170;20.884;2023-03-04T03:59:42;33.25;;;18.05;;
21274;SDS011;36472;52.170;20.884;2023-03-04T04:02:11;32.40;;;17.27;;
21274;SDS011;36472;52.170;20.884;2023-03-04T04:04:41;28.90;;;17.02;;
21274;SDS011;36472;52.170;20.884;2023-03-04T04:07:10;31.38;;;17.88;;
21274;SDS011;36472;52.170;20.884;2023-03-04T04:09:39;31.77;;;17.33;;
21274;SDS011;36472;52.170;20.884;2023-03-04T04:12:08;33.42;;;17.85;;
21274;SDS011;36472;52.170;20.884;2023-03-04T04:14:40;33.72;;;17.90;;
21274;SDS011;36472;52.170;20.884;2023-03-04T04:17:09;30.05;;;16.92;;
21274;SDS011;36472;52.170;20.884;2023-03-04T04:19:40;28.45;;;17.52;;
21274;SDS011;36472;52.170;20.884;2023-03-04T04:22:12;35.13;;;18.30;;
21274;SDS011;36472;52.170;20.884;2023-03-04T04:24:43;28.98;;;17.52;;
21274;SDS011;36472;52.170;20.884;2023-03-04T04:27:12;26.83;;;16.48;;
21274;SDS011;36472;52.170;20.884;2023-03-04T04:29:41;30.17;;;17.75;;
21274;SDS011;36472;52.170;20.884;2023-03-04T04:32:10;26.85;;;16.70;;
21274;SDS011;36472;52.170;20.884;2023-03-04T04:34:41;28.73;;;16.83;;
21274;SDS011;36472;52.170;20.884;2023-03-04T04:37:10;29.80;;;16.67;;
21274;SDS011;36472;52.170;20.884;2023-03-04T04:39:39;29.98;;;16.85;;
21274;SDS011;36472;52.170;20.884;2023-03-04T04:42:08;27.90;;;16.42;;
21274;SDS011;36472;52.170;20.884;2023-03-04T04:44:38;29.88;;;18.20;;
21274;SDS011;36472;52.170;20.884;2023-03-04T04:47:08;30.60;;;17.27;;
21274;SDS011;36472;52.170;20.884;2023-03-04T04:49:37;29.27;;;17.38;;
21274;SDS011;36472;52.170;20.884;2023-03-04T04:52:07;29.42;;;16.52;;
21274;SDS011;36472;52.170;20.884;2023-03-04T04:54:36;31.25;;;16.63;;
21274;SDS011;36472;52.170;20.884;2023-03-04T04:57:05;26.15;;;15.40;;
21274;SDS011;36472;52.170;20.884;2023-03-04T04:59:34;26.38;;;17.33;;
21274;SDS011;36472;52.170;20.884;2023-03-04T05:02:03;29.52;;;17.73;;
21274;SDS011;36472;52.170;20.884;2023-03-04T05:04:32;28.67;;;17.38;;
21274;SDS011;36472;52.170;20.884;2023-03-04T05:07:01;29.52;;;17.90;;
21274;SDS011;36472;52.170;20.884;2023-03-04T05:09:32;30.90;;;17.42;;
21274;SDS011;36472;52.170;20.884;2023-03-04T05:12:00;29.77;;;16.60;;
21274;SDS011;36472;52.170;20.884;2023-03-04T05:14:29;26.05;;;16.85;;
21274;SDS011;36472;52.170;20.884;2023-03-04T05:16:58;31.02;;;18.10;;
21274;SDS011;36472;52.170;20.884;2023-03-04T05:19:27;29.60;;;17.35;;
21274;SDS011;36472;52.170;20.884;2023-03-04T05:21:56;31.13;;;17.58;;
21274;SDS011;36472;52.170;20.884;2023-03-04T05:24:25;29.65;;;17.42;;
21274;SDS011;36472;52.170;20.884;2023-03-04T05:26:55;28.02;;;16.75;;
21274;SDS011;36472;52.170;20.884;2023-03-04T05:29:25;27.20;;;16.77;;
21274;SDS011;36472;52.170;20.884;2023-03-04T05:31:54;28.13;;;16.25;;
21274;SDS011;36472;52.170;20.884;2023-03-04T05:34:23;28.13;;;16.73;;
21274;SDS011;36472;52.170;20.884;2023-03-04T05:36:52;24.00;;;14.40;;
21274;SDS011;36472;52.170;20.884;2023-03-04T05:39:21;25.45;;;16.27;;
21274;SDS011;36472;52.170;20.884;2023-03-04T05:41:49;29.25;;;16.92;;
21274;SDS011;36472;52.170;20.884;2023-03-04T05:44:20;25.52;;;15.68;;
21274;SDS011;36472;52.170;20.884;2023-03-04T05:46:49;26.15;;;15.40;;
21274;SDS011;36472;52.170;20.884;2023-03-04T05:49:18;26.33;;;15.48;;
21274;SDS011;36472;52.170;20.884;2023-03-04T05:51:47;24.27;;;14.80;;
21274;SDS011;36472;52.170;20.884;2023-03-04T05:54:16;25.63;;;14.70;;
21274;SDS011;36472;52.170;20.884;2023-03-04T05:56:45;25.77;;;15.10;;
21274;SDS011;36472;52.170;20.884;2023-03-04T05:59:14;24.73;;;15.32;;
21274;SDS011;36472;52.170;20.884;2023-03-04T06:01:47;22.33;;;14.05;;
21274;SDS011;36472;52.170;20.884;2023-03-04T06:04:16;24.10;;;14.40;;
21274;SDS011;36472;52.170;20.884;2023-03-04T06:06:45;27.98;;;15.10;;
21274;SDS011;36472;52.170;20.884;2023-03-04T06:09:14;22.88;;;15.25;;
21274;SDS011;36472;52.170;20.884;2023-03-04T06:11:43;23.38;;;14.77;;
21274;SDS011;36472;52.170;20.884;2023-03-04T06:14:12;24.95;;;15.57;;
21274;SDS011;36472;52.170;20.884;2023-03-04T06:16:42;25.85;;;15.50;;
21274;SDS011;36472;52.170;20.884;2023-03-04T06:19:12;24.73;;;14.80;;
21274;SDS011;36472;52.170;20.884;2023-03-04T06:21:41;22.65;;;14.43;;
21274;SDS011;36472;52.170;20.884;2023-03-04T06:24:10;24.25;;;15.50;;
21274;SDS011;36472;52.170;20.884;2023-03-04T06:26:39;22.55;;;14.75;;
21274;SDS011;36472;52.170;20.884;2023-03-04T06:29:08;21.48;;;13.75;;
21274;SDS011;36472;52.170;20.884;2023-03-04T06:31:37;23.13;;;14.52;;
21274;SDS011;36472;52.170;20.884;2023-03-04T06:34:08;26.27;;;15.55;;
21274;SDS011;36472;52.170;20.884;2023-03-04T06:36:38;23.02;;;14.88;;
21274;SDS011;36472;52.170;20.884;2023-03-04T06:39:08;22.23;;;13.88;;
21274;SDS011;36472;52.170;20.884;2023-03-04T06:41:37;24.65;;;14.20;;
21274;SDS011;36472;52.170;20.884;2023-03-04T06:44:06;24.15;;;14.82;;
21274;SDS011;36472;52.170;20.884;2023-03-04T06:46:35;25.83;;;14.48;;
21274;SDS011;36472;52.170;20.884;2023-03-04T06:49:05;22.23;;;14.55;;
21274;SDS011;36472;52.170;20.884;2023-03-04T06:51:33;23.15;;;14.98;;
21274;SDS011;36472;52.170;20.884;2023-03-04T06:54:04;23.95;;;14.50;;
21274;SDS011;36472;52.170;20.884;2023-03-04T06:56:33;22.58;;;13.18;;
21274;SDS011;36472;52.170;20.884;2023-03-04T06:59:02;20.70;;;13.68;;
21274;SDS011;36472;52.170;20.884;2023-03-04T07:01:31;23.92;;;14.32;;
21274;SDS011;36472;52.170;20.884;2023-03-04T07:04:00;23.88;;;13.90;;
21274;SDS011;36472;52.170;20.884;2023-03-04T07:06:29;23.77;;;14.27;;
21274;SDS011;36472;52.170;20.884;2023-03-04T07:08:58;19.65;;;13.07;;
21274;SDS011;36472;52.170;20.884;2023-03-04T07:11:29;23.75;;;13.45;;
21274;SDS011;36472;52.170;20.884;2023-03-04T07:13:58;23.35;;;15.00;;
21274;SDS011;36472;52.170;20.884;2023-03-04T07:16:27;19.65;;;13.02;;
21274;SDS011;36472;52.170;20.884;2023-03-04T07:18:56;21.90;;;13.63;;
21274;SDS011;36472;52.170;20.884;2023-03-04T07:21:25;24.38;;;13.88;;
21274;SDS011;36472;52.170;20.884;2023-03-04T07:23:55;22.48;;;13.60;;
21274;SDS011;36472;52.170;20.884;2023-03-04T07:26:24;23.80;;;13.93;;
21274;SDS011;36472;52.170;20.884;2023-03-04T07:28:54;19.88;;;13.15;;
21274;SDS011;36472;52.170;20.884;2023-03-04T07:31:26;21.75;;;13.27;;
21274;SDS011;36472;52.170;20.884;2023-03-04T07:33:58;20.80;;;12.45;;
21274;SDS011;36472;52.170;20.884;2023-03-04T07:36:29;21.42;;;13.85;;
21274;SDS011;36472;52.170;20.884;2023-03-04T07:38:59;22.35;;;13.13;;
21274;SDS011;36472;52.170;20.884;2023-03-04T07:41:29;22.80;;;13.50;;
21274;SDS011;36472;52.170;20.884;2023-03-04T07:44:03;23.90;;;14.20;;
21274;SDS011;36472;52.170;20.884;2023-03-04T07:46:38;23.05;;;13.23;;
21274;SDS011;36472;52.170;20.884;2023-03-04T07:49:10;23.92;;;13.63;;
21274;SDS011;36472;52.170;20.884;2023-03-04T07:51:39;21.23;;;12.75;;
21274;SDS011;36472;52.170;20.884;2023-03-04T07:54:09;20.42;;;13.02;;
21274;SDS011;36472;52.170;20.884;2023-03-04T07:56:38;20.52;;;13.38;;
21274;SDS011;36472;52.170;20.884;2023-03-04T07:59:08;19.33;;;13.70;;
21274;SDS011;36472;52.170;20.884;2023-03-04T08:01:37;21.55;;;12.95;;
21274;SDS011;36472;52.170;20.884;2023-03-04T08:04:07;26.42;;;13.65;;
21274;SDS011;36472;52.170;20.884;2023-03-04T08:06:36;22.33;;;12.85;;
21274;SDS011;36472;52.170;20.884;2023-03-04T08:09:07;24.13;;;13.05;;
21274;SDS011;36472;52.170;20.884;2023-03-04T08:11:39;19.00;;;12.15;;
21274;SDS011;36472;52.170;20.884;2023-03-04T08:14:11;21.48;;;13.40;;
21274;SDS011;36472;52.170;20.884;2023-03-04T08:16:40;20.13;;;12.27;;
21274;SDS011;36472;52.170;20.884;2023-03-04T08:19:10;18.67;;;12.13;;
21274;SDS011;36472;52.170;20.884;2023-03-04T08:21:39;21.98;;;12.10;;
21274;SDS011;36472;52.170;20.884;2023-03-04T08:24:08;19.15;;;11.90;;
21274;SDS011;36472;52.170;20.884;2023-03-04T08:26:40;19.80;;;11.93;;
21274;SDS011;36472;52.170;20.884;2023-03-04T08:29:15;18.88;;;11.75;;
21274;SDS011;36472;52.170;20.884;2023-03-04T08:31:48;23.30;;;13.48;;
21274;SDS011;36472;52.170;20.884;2023-03-04T08:34:20;21.88;;;12.98;;
21274;SDS011;36472;52.170;20.884;2023-03-04T08:36:52;22.08;;;12.10;;
21274;SDS011;36472;52.170;20.884;2023-03-04T08:39:21;18.60;;;11.93;;
21274;SDS011;36472;52.170;20.884;2023-03-04T08:41:50;18.33;;;12.32;;
21274;SDS011;36472;52.170;20.884;2023-03-04T08:44:21;20.52;;;12.60;;
21274;SDS011;36472;52.170;20.884;2023-03-04T08:46:52;20.17;;;11.98;;
21274;SDS011;36472;52.170;20.884;2023-03-04T08:49:21;22.05;;;12.25;;
21274;SDS011;36472;52.170;20.884;2023-03-04T08:51:50;22.92;;;12.68;;
21274;SDS011;36472;52.170;20.884;2023-03-04T08:54:19;23.05;;;13.50;;
21274;SDS011;36472;52.170;20.884;2023-03-04T08:56:48;19.77;;;12.13;;
21274;SDS011;36472;52.170;20.884;2023-03-04T08:59:17;20.60;;;11.65;;
21274;SDS011;36472;52.170;20.884;2023-03-04T09:01:47;23.02;;;12.90;;
21274;SDS011;36472;52.170;20.884;2023-03-04T09:04:17;19.30;;;12.13;;
21274;SDS011;36472;52.170;20.884;2023-03-04T09:06:46;21.17;;;12.38;;
21274;SDS011;36472;52.170;20.884;2023-03-04T09:09:15;19.65;;;11.90;;
21274;SDS011;36472;52.170;20.884;2023-03-04T09:11:44;18.58;;;12.20;;
21274;SDS011;36472;52.170;20.884;2023-03-04T09:14:13;21.42;;;12.30;;
21274;SDS011;36472;52.170;20.884;2023-03-04T09:16:41;19.38;;;11.48;;
21274;SDS011;36472;52.170;20.884;2023-03-04T09:19:12;20.58;;;11.77;;
21274;SDS011;36472;52.170;20.884;2023-03-04T09:21:41;19.52;;;11.35;;
21274;SDS011;36472;52.170;20.884;2023-03-04T09:24:10;18.67;;;11.35;;
21274;SDS011;36472;52.170;20.884;2023-03-04T09:26:39;20.85;;;11.73;;
21274;SDS011;36472;52.170;20.884;2023-03-04T09:29:08;20.83;;;12.32;;
21274;SDS011;36472;52.170;20.884;2023-03-04T09:31:37;20.00;;;10.85;;
21274;SDS011;36472;52.170;20.884;2023-03-04T09:34:06;17.15;;;11.02;;
21274;SDS011;36472;52.170;20.884;2023-03-04T09:36:37;20.90;;;12.05;;
21274;SDS011;36472;52.170;20.884;2023-03-04T09:39:06;22.45;;;12.38;;
21274;SDS011;36472;52.170;20.884;2023-03-04T09:41:36;20.63;;;12.48;;
21274;SDS011;36472;52.170;20.884;2023-03-04T09:44:12;19.40;;;11.02;;
21274;SDS011;36472;52.170;20.884;2023-03-04T09:46:49;23.35;;;12.02;;
21274;SDS011;36472;52.170;20.884;2023-03-04T09:49:20;20.92;;;10.82;;
21274;SDS011;36472;52.170;20.884;2023-03-04T09:51:53;24.27;;;12.02;;
21274;SDS011;36472;52.170;20.884;2023-03-04T09:54:32;22.00;;;11.85;;
21274;SDS011;36472;52.170;20.884;2023-03-04T09:57:26;18.95;;;10.85;;
21274;SDS011;36472;52.170;20.884;2023-03-04T10:00:12;17.55;;;11.63;;
21274;SDS011;36472;52.170;20.884;2023-03-04T10:02:50;19.20;;;10.38;;
21274;SDS011;36472;52.170;20.884;2023-03-04T10:05:35;20.05;;;11.32;;
21274;SDS011;36472;52.170;20.884;2023-03-04T10:08:19;18.02;;;11.43;;
21274;SDS011;36472;52.170;20.884;2023-03-04T10:11:02;18.92;;;10.95;;
21274;SDS011;36472;52.170;20.884;2023-03-04T10:13:42;20.10;;;10.48;;
21274;SDS011;36472;52.170;20.884;2023-03-04T10:16:25;24.98;;;11.80;;
21274;SDS011;36472;52.170;20.884;2023-03-04T10:19:02;17.60;;;10.32;;
21274;SDS011;36472;52.170;20.884;2023-03-04T10:21:51;22.33;;;11.32;;
21274;SDS011;36472;52.170;20.884;2023-03-04T10:24:23;17.77;;;10.38;;
21274;SDS011;36472;52.170;20.884;2023-03-04T10:26:59;16.65;;;10.25;;
21274;SDS011;36472;52.170;20.884;2023-03-04T10:29:34;18.38;;;11.38;;
21274;SDS011;36472;52.170;20.884;2023-03-04T10:32:07;19.05;;;10.32;;
21274;SDS011;36472;52.170;20.884;2023-03-04T10:34:41;19.85;;;10.55;;
21274;SDS011;36472;52.170;20.884;2023-03-04T10:37:11;18.75;;;10.98;;
21274;SDS011;36472;52.170;20.884;2023-03-04T10:39:42;17.15;;;10.55;;
21274;SDS011;36472;52.170;20.884;2023-03-04T10:42:22;19.40;;;10.95;;
21274;SDS011;36472;52.170;20.884;2023-03-04T10:44:58;17.50;;;9.50;;
21274;SDS011;36472;52.170;20.884;2023-03-04T10:47:29;17.10;;;10.07;;
21274;SDS011;36472;52.170;20.884;2023-03-04T10:50:02;18.95;;;10.77;;
21274;SDS011;36472;52.170;20.884;2023-03-04T10:52:34;21.90;;;10.90;;
21274;SDS011;36472;52.170;20.884;2023-03-04T10:55:13;21.13;;;10.20;;
21274;SDS011;36472;52.170;20.884;2023-03-04T10:57:47;18.17;;;10.90;;
21274;SDS011;36472;52.170;20.884;2023-03-04T11:00:23;20.25;;;10.68;;
21274;SDS011;36472;52.170;20.884;2023-03-04T11:06:05;17.20;;;10.40;;
21274;SDS011;36472;52.170;20.884;2023-03-04T11:08:44;18.15;;;10.27;;
21274;SDS011;36472;52.170;20.884;2023-03-04T11:11:24;17.38;;;10.23;;
21274;SDS011;36472;52.170;20.884;2023-03-04T11:14:01;20.73;;;10.27;;
21274;SDS011;36472;52.170;20.884;2023-03-04T11:16:44;21.13;;;10.90;;
21274;SDS011;36472;52.170;20.884;2023-03-04T11:19:23;18.92;;;10.20;;
21274;SDS011;36472;52.170;20.884;2023-03-04T11:21:58;23.95;;;10.82;;
21274;SDS011;36472;52.170;20.884;2023-03-04T11:24:28;23.48;;;9.88;;
21274;SDS011;36472;52.170;20.884;2023-03-04T11:27:03;18.40;;;10.32;;
21274;SDS011;36472;52.170;20.884;2023-03-04T11:29:43;17.20;;;9.93;;
21274;SDS011;36472;52.170;20.884;2023-03-04T11:32:19;19.00;;;9.60;;
21274;SDS011;36472;52.170;20.884;2023-03-04T11:34:55;18.40;;;10.52;;
21274;SDS011;36472;52.170;20.884;2023-03-04T11:37:34;20.33;;;10.48;;
21274;SDS011;36472;52.170;20.884;2023-03-04T11:40:11;21.60;;;10.07;;
21274;SDS011;36472;52.170;20.884;2023-03-04T11:42:52;21.70;;;10.45;;
21274;SDS011;36472;52.170;20.884;2023-03-04T11:45:31;18.77;;;11.40;;
21274;SDS011;36472;52.170;20.884;2023-03-04T11:48:41;19.08;;;10.40;;
21274;SDS011;36472;52.170;20.884;2023-03-04T11:51:20;19.63;;;11.63;;
21274;SDS011;36472;52.170;20.884;2023-03-04T11:54:04;20.85;;;11.10;;
21274;SDS011;36472;52.170;20.884;2023-03-04T11:56:51;22.95;;;11.77;;
21274;SDS011;36472;52.170;20.884;2023-03-04T11:59:33;19.58;;;11.93;;
21274;SDS011;36472;52.170;20.884;2023-03-04T12:02:40;19.67;;;12.10;;
21274;SDS011;36472;52.170;20.884;2023-03-04T12:05:20;22.63;;;12.88;;
21274;SDS011;36472;52.170;20.884;2023-03-04T12:08:07;18.70;;;11.80;;
21274;SDS011;36472;52.170;20.884;2023-03-04T12:10:54;19.67;;;12.35;;
21274;SDS011;36472;52.170;20.884;2023-03-04T12:13:47;16.98;;;11.52;;
21274;SDS011;36472;52.170;20.884;2023-03-04T12:20:23;26.15;;;13.20;;
21274;SDS011;36472;52.170;20.884;2023-03-04T12:23:10;19.27;;;12.38;;
21274;SDS011;36472;52.170;20.884;2023-03-04T12:25:59;21.65;;;11.43;;
21274;SDS011;36472;52.170;20.884;2023-03-04T12:28:46;22.33;;;11.35;;
21274;SDS011;36472;52.170;20.884;2023-03-04T12:31:28;20.45;;;11.50;;
21274;SDS011;36472;52.170;20.884;2023-03-04T12:37:16;24.00;;;12.23;;
21274;SDS011;36472;52.170;20.884;2023-03-04T12:40:22;23.80;;;12.88;;
21274;SDS011;36472;52.170;20.884;2023-03-04T12:43:05;19.40;;;13.23;;
21274;SDS011;36472;52.170;20.884;2023-03-04T12:45:56;21.20;;;12.95;;
21274;SDS011;36472;52.170;20.884;2023-03-04T12:48:38;22.15;;;13.23;;
21274;SDS011;36472;52.170;20.884;2023-03-04T12:51:20;19.55;;;11.82;;
21274;SDS011;36472;52.170;20.884;2023-03-04T12:54:04;17.10;;;11.35;;
21274;SDS011;36472;52.170;20.884;2023-03-04T12:56:53;23.70;;;14.15;;
21274;SDS011;36472;52.170;20.884;2023-03-04T12:59:31;21.17;;;13.07;;
21274;SDS011;36472;52.170;20.884;2023-03-04T13:02:17;18.48;;;11.32;;
21274;SDS011;36472;52.170;20.884;2023-03-04T13:05:18;17.48;;;11.32;;
21274;SDS011;36472;52.170;20.884;2023-03-04T13:08:11;21.00;;;12.80;;
21274;SDS011;36472;52.170;20.884;2023-03-04T13:11:01;18.98;;;10.80;;
21274;SDS011;36472;52.170;20.884;2023-03-04T13:13:35;22.35;;;11.38;;
21274;SDS011;36472;52.170;20.884;2023-03-04T13:18:59;23.25;;;13.82;;
21274;SDS011;36472;52.170;20.884;2023-03-04T13:21:28;21.10;;;13.55;;
21274;SDS011;36472;52.170;20.884;2023-03-04T13:24:00;21.08;;;13.13;;
21274;SDS011;36472;52.170;20.884;2023-03-04T13:33:46;15.85;;;11.07;;
21274;SDS011;36472;52.170;20.884;2023-03-04T13:36:32;16.88;;;10.18;;
21274;SDS011;36472;52.170;20.884;2023-03-04T13:39:26;17.42;;;10.27;;
21274;SDS011;36472;52.170;20.884;2023-03-04T13:42:00;18.77;;;10.88;;
21274;SDS011;36472;52.170;20.884;2023-03-04T13:44:57;15.52;;;9.60;;
21274;SDS011;36472;52.170;20.884;2023-03-04T13:47:33;14.90;;;9.95;;
21274;SDS011;36472;52.170;20.884;2023-03-04T13:50:23;14.30;;;9.93;;
21274;SDS011;36472;52.170;20.884;2023-03-04T13:53:18;15.48;;;8.57;;
21274;SDS011;36472;52.170;20.884;2023-03-04T13:59:00;16.92;;;8.95;;
21274;SDS011;36472;52.170;20.884;2023-03-04T14:01:56;12.77;;;8.52;;
21274;SDS011;36472;52.170;20.884;2023-03-04T14:04:37;6.30;;;4.43;;
21274;SDS011;36472;52.170;20.884;2023-03-04T14:07:18;6.80;;;3.67;;
21274;SDS011;36472;52.170;20.884;2023-03-04T14:09:56;6.90;;;4.32;;
21274;SDS011;36472;52.170;20.884;2023-03-04T14:12:29;6.28;;;3.70;;
21274;SDS011;36472;52.170;20.884;2023-03-04T14:15:02;11.90;;;4.25;;
21274;SDS011;36472;52.170;20.884;2023-03-04T14:17:35;11.68;;;4.68;;
21274;SDS011;36472;52.170;20.884;2023-03-04T14:20:06;8.15;;;4.40;;
21274;SDS011;36472;52.170;20.884;2023-03-04T14:22:52;10.02;;;6.22;;
21274;SDS011;36472;52.170;20.884;2023-03-04T14:25:23;7.97;;;4.40;;
21274;SDS011;36472;52.170;20.884;2023-03-04T14:28:02;6.57;;;4.25;;
21274;SDS011;36472;52.170;20.884;2023-03-04T14:30:37;8.15;;;4.22;;
21274;SDS011;36472;52.170;20.884;2023-03-04T14:33:15;8.02;;;5.10;;
21274;SDS011;36472;52.170;20.884;2023-03-04T14:35:49;10.70;;;7.30;;
21274;SDS011;36472;52.170;20.884;2023-03-04T14:38:22;13.38;;;6.57;;
21274;SDS011;36472;52.170;20.884;2023-03-04T14:40:56;8.90;;;5.90;;
21274;SDS011;36472;52.170;20.884;2023-03-04T14:43:33;9.55;;;5.13;;
21274;SDS011;36472;52.170;20.884;2023-03-04T14:46:07;10.32;;;6.53;;
21274;SDS011;36472;52.170;20.884;2023-03-04T14:48:48;9.98;;;5.65;;
21274;SDS011;36472;52.170;20.884;2023-03-04T14:51:35;10.10;;;5.53;;
21274;SDS011;36472;52.170;20.884;2023-03-04T14:54:24;8.50;;;5.20;;
21274;SDS011;36472;52.170;20.884;2023-03-04T14:56:57;12.55;;;5.80;;
21274;SDS011;36472;52.170;20.884;2023-03-04T14:59:29;11.45;;;6.60;;
21274;SDS011;36472;52.170;20.884;2023-03-04T15:02:14;10.32;;;5.60;;
21274;SDS011;36472;52.170;20.884;2023-03-04T15:04:59;9.60;;;6.70;;
21274;SDS011;36472;52.170;20.884;2023-03-04T15:07:43;12.45;;;10.63;;
21274;SDS011;36472;52.170;20.884;2023-03-04T15:10:20;6.28;;;3.92;;
21274;SDS011;36472;52.170;20.884;2023-03-04T15:12:53;8.57;;;6.40;;